Résultats sport de masse course à pied

Résultats : 100 Km entre Terre et Mer - 100 Km

Classement général Classement Sexe Nom, prénom Catégorie Sexe Club Temps
1 1 JEANNE Mickaël V1 M GDM ST JAMES 01:44:16
2 2 BERTONE Silvio V1 M ASD GIANNONERUNNING CIRCUIT 01:44:16
3 3 LE GUERN OLIVIER V1 M TREGUEUX ATHLETISME 01:44:17
4 4 CARDOSO DIAS Daniel SE M CA Villenave d'ornon 01:51:06
5 5 THEPAUT Maurice V2 M 01:53:24
6 6 AUBRY David SE M ECUM CLEDER-SPORT2000 LANDERNEAU 01:56:09
7 7 LE DUC Stephane V1 M B.L.A.T COURIR POUR OWEN 01:58:02
8 8 LEBORGNE FRANCK V1 M FFA SEMELLE DE VENT 01:59:21
9 9 EVALET Philippe V1 M 02:06:26
10 10 ROGNARD Laurent SE M 02:06:52
11 11 LOZAHIC Yvon V1 M 02:07:05
12 12 PENNEC David V1 M 02:07:54
13 13 UGUEN Pascal V1 M 02:08:18
14 14 SUCRE HUGUES V1 M 02:08:18
15 15 RACINNE GERARD V2 M 02:09:13
16 16 DERRIEN Franck SE M 02:13:36
17 17 LE HIR YVON V2 M COURIR A CHATEAULIN 02:13:45
18 18 MENEZ Jean Pierre V2 M 02:14:13
19 19 GRASSET Alain V3 M 17 SOUPAPES 02:15:12
20 20 STEPHAN YANN SE M PLOEREN ENDURANCE 02:15:26
21 21 BLEAS ALAIN V1 M S/L ES CORSEN 02:15:59
22 22 DURANT jacky SE M 02:16:00
23 23 PAUL Gilbert V1 M 02:16:00
24 24 GAZZOLA PATRICK V1 M 02:16:01
25 25 BONNIN Cyril V1 M 02:16:01
26 26 LE BERRE Jean-Jacques V2 M 02:16:17
28 27 LE BRAS Jean-Claude V1 M 02:17:48
29 28 PIALLOUX franck V1 M 02:18:08
30 29 MESSAGER ANTOINE SE M 02:18:21
31 30 COLIN DAVID V1 M 02:18:33
33 31 KOCH Dominique V2 M 02:19:17
34 32 BESSIERE timothée SE M 02:19:51
35 33 HELY Benoit SE M 02:20:20
36 34 BRENOT vincent V2 M 02:20:20
37 35 PALLARUELO Angel ES M 02:21:13
38 36 LEOST RONAN V1 M Herbauges Athlé 44 02:22:55
39 37 GAUTIER François SE M 02:23:22
40 38 FILY Jean-Yves V2 M 02:23:23
41 39 SALLES jean.luc V2 M UFOLEP ORMA 02:23:57
42 40 MOREAU NICOLAS SE M 02:24:05
43 41 BEAUMONT Thierry V2 M 02:24:49
44 42 MACOMBE Paul V2 M 02:26:04
46 43 BARON Christophe V1 M 02:26:55
47 44 SPECTY JULIEN SE M 02:27:37
48 45 POIVET PATRICK SE M 02:28:16
49 46 SIMON MICHEL V2 M ENDURANCE 72 02:29:07
50 47 ROZEC HERVE V1 M 02:29:20
51 48 DAUPHIN Pierre V2 M 02:30:43
52 49 PILLAS William V2 M 02:30:44
53 50 BARANGER christian V2 M HERBAUGES ATHLETIC CLUB 02:30:47
Première page Page précédente 1 2 3 4